sensor_id;sensor_type;location;lat;lon;timestamp;temperature;humidity
14409;DHT22;7289;50.706;4.992;2022-11-15T00:00:27;11.80;99.90
14409;DHT22;7289;50.706;4.992;2022-11-15T00:03:14;11.90;99.90
14409;DHT22;7289;50.706;4.992;2022-11-15T00:06:02;11.90;99.90
14409;DHT22;7289;50.706;4.992;2022-11-15T00:08:49;11.90;99.90
14409;DHT22;7289;50.706;4.992;2022-11-15T00:11:38;11.90;99.90
14409;DHT22;7289;50.706;4.992;2022-11-15T00:14:24;11.90;99.90
14409;DHT22;7289;50.706;4.992;2022-11-15T00:17:11;11.90;99.90
14409;DHT22;7289;50.706;4.992;2022-11-15T00:19:58;11.90;99.90
14409;DHT22;7289;50.706;4.992;2022-11-15T00:22:45;12.00;99.90
14409;DHT22;7289;50.706;4.992;2022-11-15T00:25:32;12.00;99.90
14409;DHT22;7289;50.706;4.992;2022-11-15T00:28:20;12.00;99.90
14409;DHT22;7289;50.706;4.992;2022-11-15T00:31:10;12.10;99.90
14409;DHT22;7289;50.706;4.992;2022-11-15T00:33:58;12.10;99.90
14409;DHT22;7289;50.706;4.992;2022-11-15T00:36:45;12.10;99.90
14409;DHT22;7289;50.706;4.992;2022-11-15T00:39:32;12.10;99.90
14409;DHT22;7289;50.706;4.992;2022-11-15T00:42:19;12.10;99.90
14409;DHT22;7289;50.706;4.992;2022-11-15T00:45:08;12.00;99.90
14409;DHT22;7289;50.706;4.992;2022-11-15T00:47:55;12.00;99.90
14409;DHT22;7289;50.706;4.992;2022-11-15T00:50:42;12.00;99.90
14409;DHT22;7289;50.706;4.992;2022-11-15T00:53:29;12.00;99.90
14409;DHT22;7289;50.706;4.992;2022-11-15T00:56:16;12.00;99.90
14409;DHT22;7289;50.706;4.992;2022-11-15T00:59:03;11.90;99.90
14409;DHT22;7289;50.706;4.992;2022-11-15T01:01:52;11.90;99.90
14409;DHT22;7289;50.706;4.992;2022-11-15T01:04:38;11.90;99.90
14409;DHT22;7289;50.706;4.992;2022-11-15T01:07:25;11.90;99.90
14409;DHT22;7289;50.706;4.992;2022-11-15T01:10:13;11.90;99.90
14409;DHT22;7289;50.706;4.992;2022-11-15T01:13:00;11.80;99.90
14409;DHT22;7289;50.706;4.992;2022-11-15T01:15:46;11.90;99.90
14409;DHT22;7289;50.706;4.992;2022-11-15T01:18:35;11.90;99.90
14409;DHT22;7289;50.706;4.992;2022-11-15T01:21:22;11.90;99.90
14409;DHT22;7289;50.706;4.992;2022-11-15T01:24:12;12.00;99.90
14409;DHT22;7289;50.706;4.992;2022-11-15T01:26:59;12.00;99.90
14409;DHT22;7289;50.706;4.992;2022-11-15T01:29:46;12.10;99.90
14409;DHT22;7289;50.706;4.992;2022-11-15T01:32:33;12.10;99.90
14409;DHT22;7289;50.706;4.992;2022-11-15T01:35:21;12.20;99.90
14409;DHT22;7289;50.706;4.992;2022-11-15T01:38:08;12.20;99.90
14409;DHT22;7289;50.706;4.992;2022-11-15T01:40:55;12.30;99.90
14409;DHT22;7289;50.706;4.992;2022-11-15T01:43:42;12.30;99.90
14409;DHT22;7289;50.706;4.992;2022-11-15T01:46:30;12.40;99.90
14409;DHT22;7289;50.706;4.992;2022-11-15T01:49:21;12.40;99.90
14409;DHT22;7289;50.706;4.992;2022-11-15T01:52:15;12.50;99.90
14409;DHT22;7289;50.706;4.992;2022-11-15T01:55:08;12.60;99.90
14409;DHT22;7289;50.706;4.992;2022-11-15T01:57:59;12.60;99.90
14409;DHT22;7289;50.706;4.992;2022-11-15T02:00:46;12.60;99.90
14409;DHT22;7289;50.706;4.992;2022-11-15T02:03:39;12.70;99.90
14409;DHT22;7289;50.706;4.992;2022-11-15T02:06:28;12.70;99.90
14409;DHT22;7289;50.706;4.992;2022-11-15T02:09:17;12.80;99.90
14409;DHT22;7289;50.706;4.992;2022-11-15T02:12:05;12.80;99.90
14409;DHT22;7289;50.706;4.992;2022-11-15T02:14:54;12.90;99.90
14409;DHT22;7289;50.706;4.992;2022-11-15T02:21:16;12.90;99.90
14409;DHT22;7289;50.706;4.992;2022-11-15T02:27:56;13.00;99.90
14409;DHT22;7289;50.706;4.992;2022-11-15T02:30:49;13.00;99.90
14409;DHT22;7289;50.706;4.992;2022-11-15T02:33:43;13.00;99.90
14409;DHT22;7289;50.706;4.992;2022-11-15T02:36:41;13.00;99.90
14409;DHT22;7289;50.706;4.992;2022-11-15T02:39:35;13.00;99.90
14409;DHT22;7289;50.706;4.992;2022-11-15T02:42:26;13.00;99.90
14409;DHT22;7289;50.706;4.992;2022-11-15T02:45:30;13.10;99.90
14409;DHT22;7289;50.706;4.992;2022-11-15T02:48:21;13.10;99.90
14409;DHT22;7289;50.706;4.992;2022-11-15T02:51:10;13.10;99.90
14409;DHT22;7289;50.706;4.992;2022-11-15T02:53:58;13.10;99.90
14409;DHT22;7289;50.706;4.992;2022-11-15T02:56:46;13.00;99.90
14409;DHT22;7289;50.706;4.992;2022-11-15T03:03:08;13.00;99.90
14409;DHT22;7289;50.706;4.992;2022-11-15T03:06:05;13.10;99.90
14409;DHT22;7289;50.706;4.992;2022-11-15T03:09:04;13.10;99.90
14409;DHT22;7289;50.706;4.992;2022-11-15T03:11:57;13.10;99.90
14409;DHT22;7289;50.706;4.992;2022-11-15T03:14:51;13.10;99.90
14409;DHT22;7289;50.706;4.992;2022-11-15T03:17:43;13.00;99.90
14409;DHT22;7289;50.706;4.992;2022-11-15T03:20:33;13.10;99.90
14409;DHT22;7289;50.706;4.992;2022-11-15T03:23:22;13.10;99.90
14409;DHT22;7289;50.706;4.992;2022-11-15T03:26:12;13.10;99.90
14409;DHT22;7289;50.706;4.992;2022-11-15T03:29:04;13.10;99.90
14409;DHT22;7289;50.706;4.992;2022-11-15T03:31:57;13.00;99.90
14409;DHT22;7289;50.706;4.992;2022-11-15T03:34:47;13.10;99.90
14409;DHT22;7289;50.706;4.992;2022-11-15T03:37:39;13.10;99.90
14409;DHT22;7289;50.706;4.992;2022-11-15T03:40:33;13.10;99.90
14409;DHT22;7289;50.706;4.992;2022-11-15T03:43:30;13.10;99.90
14409;DHT22;7289;50.706;4.992;2022-11-15T03:46:25;13.10;99.90
14409;DHT22;7289;50.706;4.992;2022-11-15T03:49:17;13.10;99.90
14409;DHT22;7289;50.706;4.992;2022-11-15T03:52:05;13.10;99.90
14409;DHT22;7289;50.706;4.992;2022-11-15T03:54:54;13.10;99.90
14409;DHT22;7289;50.706;4.992;2022-11-15T03:57:43;13.10;99.90
14409;DHT22;7289;50.706;4.992;2022-11-15T04:00:30;13.10;99.90
14409;DHT22;7289;50.706;4.992;2022-11-15T04:03:17;13.10;99.90
14409;DHT22;7289;50.706;4.992;2022-11-15T04:06:04;13.00;99.90
14409;DHT22;7289;50.706;4.992;2022-11-15T04:08:51;12.90;99.90
14409;DHT22;7289;50.706;4.992;2022-11-15T04:11:38;12.80;99.90
14409;DHT22;7289;50.706;4.992;2022-11-15T04:14:26;12.80;99.90
14409;DHT22;7289;50.706;4.992;2022-11-15T04:17:13;12.60;99.90
14409;DHT22;7289;50.706;4.992;2022-11-15T04:19:59;12.70;99.90
14409;DHT22;7289;50.706;4.992;2022-11-15T04:23:06;12.60;99.90
14409;DHT22;7289;50.706;4.992;2022-11-15T04:26:15;12.40;99.90
14409;DHT22;7289;50.706;4.992;2022-11-15T04:29:02;12.40;99.90
14409;DHT22;7289;50.706;4.992;2022-11-15T04:32:08;12.40;99.90
14409;DHT22;7289;50.706;4.992;2022-11-15T04:34:55;12.30;99.90
14409;DHT22;7289;50.706;4.992;2022-11-15T04:37:41;12.30;99.90
14409;DHT22;7289;50.706;4.992;2022-11-15T04:40:34;12.20;99.90
14409;DHT22;7289;50.706;4.992;2022-11-15T04:43:22;12.20;99.90
14409;DHT22;7289;50.706;4.992;2022-11-15T04:46:08;12.20;99.90
14409;DHT22;7289;50.706;4.992;2022-11-15T04:48:57;12.10;99.90
14409;DHT22;7289;50.706;4.992;2022-11-15T04:51:44;12.20;99.90
14409;DHT22;7289;50.706;4.992;2022-11-15T04:54:31;12.10;99.90
14409;DHT22;7289;50.706;4.992;2022-11-15T04:57:18;12.20;99.90
14409;DHT22;7289;50.706;4.992;2022-11-15T05:00:08;12.10;99.90
14409;DHT22;7289;50.706;4.992;2022-11-15T05:02:55;12.10;99.90
14409;DHT22;7289;50.706;4.992;2022-11-15T05:06:01;12.20;99.90
14409;DHT22;7289;50.706;4.992;2022-11-15T05:08:48;12.00;99.90
14409;DHT22;7289;50.706;4.992;2022-11-15T05:11:35;12.00;99.90
14409;DHT22;7289;50.706;4.992;2022-11-15T05:14:21;12.00;99.90
14409;DHT22;7289;50.706;4.992;2022-11-15T05:17:08;12.00;99.90
14409;DHT22;7289;50.706;4.992;2022-11-15T05:19:55;11.90;99.90
14409;DHT22;7289;50.706;4.992;2022-11-15T05:22:43;11.90;99.90
14409;DHT22;7289;50.706;4.992;2022-11-15T05:25:30;11.90;99.90
14409;DHT22;7289;50.706;4.992;2022-11-15T05:28:17;11.90;99.90
14409;DHT22;7289;50.706;4.992;2022-11-15T05:31:05;11.80;99.90
14409;DHT22;7289;50.706;4.992;2022-11-15T05:33:53;11.80;99.90
14409;DHT22;7289;50.706;4.992;2022-11-15T05:36:42;11.80;99.90
14409;DHT22;7289;50.706;4.992;2022-11-15T05:39:31;11.80;99.90
14409;DHT22;7289;50.706;4.992;2022-11-15T05:42:18;11.80;99.90
14409;DHT22;7289;50.706;4.992;2022-11-15T05:45:08;11.70;99.90
14409;DHT22;7289;50.706;4.992;2022-11-15T05:47:56;11.60;99.90
14409;DHT22;7289;50.706;4.992;2022-11-15T05:50:46;11.70;99.90
14409;DHT22;7289;50.706;4.992;2022-11-15T05:53:33;11.60;99.90
14409;DHT22;7289;50.706;4.992;2022-11-15T05:56:22;11.70;99.90
14409;DHT22;7289;50.706;4.992;2022-11-15T05:59:10;11.50;99.90
14409;DHT22;7289;50.706;4.992;2022-11-15T06:01:58;11.40;99.90
14409;DHT22;7289;50.706;4.992;2022-11-15T06:04:44;11.30;99.90
14409;DHT22;7289;50.706;4.992;2022-11-15T06:07:31;11.20;99.90
14409;DHT22;7289;50.706;4.992;2022-11-15T06:10:18;11.10;99.90
14409;DHT22;7289;50.706;4.992;2022-11-15T06:13:07;10.90;99.90
14409;DHT22;7289;50.706;4.992;2022-11-15T06:15:55;10.70;99.90
14409;DHT22;7289;50.706;4.992;2022-11-15T06:18:42;10.60;99.90
14409;DHT22;7289;50.706;4.992;2022-11-15T06:21:29;10.50;99.90
14409;DHT22;7289;50.706;4.992;2022-11-15T06:24:15;10.40;99.90
14409;DHT22;7289;50.706;4.992;2022-11-15T06:27:02;10.30;99.90
14409;DHT22;7289;50.706;4.992;2022-11-15T06:29:51;10.30;99.90
14409;DHT22;7289;50.706;4.992;2022-11-15T06:32:38;10.20;99.90
14409;DHT22;7289;50.706;4.992;2022-11-15T06:35:25;10.10;99.90
14409;DHT22;7289;50.706;4.992;2022-11-15T06:38:12;10.10;99.90
14409;DHT22;7289;50.706;4.992;2022-11-15T06:41:01;10.00;99.90
14409;DHT22;7289;50.706;4.992;2022-11-15T06:43:48;9.90;99.90
14409;DHT22;7289;50.706;4.992;2022-11-15T06:46:36;9.80;99.90
14409;DHT22;7289;50.706;4.992;2022-11-15T06:49:23;9.70;99.90
14409;DHT22;7289;50.706;4.992;2022-11-15T06:52:10;9.50;99.90
14409;DHT22;7289;50.706;4.992;2022-11-15T06:54:56;9.50;99.90
14409;DHT22;7289;50.706;4.992;2022-11-15T06:57:48;9.30;99.90
14409;DHT22;7289;50.706;4.992;2022-11-15T07:00:35;9.20;99.90
14409;DHT22;7289;50.706;4.992;2022-11-15T07:03:23;9.20;99.90
14409;DHT22;7289;50.706;4.992;2022-11-15T07:06:10;9.10;99.90
14409;DHT22;7289;50.706;4.992;2022-11-15T07:08:57;9.00;99.90
14409;DHT22;7289;50.706;4.992;2022-11-15T07:11:43;9.00;99.90
14409;DHT22;7289;50.706;4.992;2022-11-15T07:14:30;8.90;99.90
14409;DHT22;7289;50.706;4.992;2022-11-15T07:17:17;9.00;99.90
14409;DHT22;7289;50.706;4.992;2022-11-15T07:20:07;8.90;99.90
14409;DHT22;7289;50.706;4.992;2022-11-15T07:22:59;8.90;99.90
14409;DHT22;7289;50.706;4.992;2022-11-15T07:25:47;8.90;99.90
14409;DHT22;7289;50.706;4.992;2022-11-15T07:28:34;8.90;99.90
14409;DHT22;7289;50.706;4.992;2022-11-15T07:31:21;8.90;99.90
14409;DHT22;7289;50.706;4.992;2022-11-15T07:34:08;8.90;99.90
14409;DHT22;7289;50.706;4.992;2022-11-15T07:36:57;8.90;99.90
14409;DHT22;7289;50.706;4.992;2022-11-15T07:39:44;9.00;99.90
14409;DHT22;7289;50.706;4.992;2022-11-15T07:42:31;9.00;99.90
14409;DHT22;7289;50.706;4.992;2022-11-15T07:45:40;9.10;99.90
14409;DHT22;7289;50.706;4.992;2022-11-15T07:48:27;9.00;99.90
14409;DHT22;7289;50.706;4.992;2022-11-15T07:51:28;9.10;99.90
14409;DHT22;7289;50.706;4.992;2022-11-15T07:54:17;9.20;99.90
14409;DHT22;7289;50.706;4.992;2022-11-15T07:57:04;9.20;99.90
14409;DHT22;7289;50.706;4.992;2022-11-15T07:59:52;9.30;99.90
14409;DHT22;7289;50.706;4.992;2022-11-15T08:02:39;9.30;99.90
14409;DHT22;7289;50.706;4.992;2022-11-15T08:05:27;9.40;99.90
14409;DHT22;7289;50.706;4.992;2022-11-15T08:08:14;9.40;99.90
14409;DHT22;7289;50.706;4.992;2022-11-15T08:11:02;9.40;99.90
14409;DHT22;7289;50.706;4.992;2022-11-15T08:13:49;9.40;99.90
14409;DHT22;7289;50.706;4.992;2022-11-15T08:16:37;9.40;99.90
14409;DHT22;7289;50.706;4.992;2022-11-15T08:19:23;9.40;99.90
14409;DHT22;7289;50.706;4.992;2022-11-15T08:22:10;9.50;99.90
14409;DHT22;7289;50.706;4.992;2022-11-15T08:24:57;9.50;99.90
14409;DHT22;7289;50.706;4.992;2022-11-15T08:27:45;9.50;99.90
14409;DHT22;7289;50.706;4.992;2022-11-15T08:30:35;9.50;99.90
14409;DHT22;7289;50.706;4.992;2022-11-15T08:33:23;9.50;99.90
14409;DHT22;7289;50.706;4.992;2022-11-15T08:36:13;9.40;99.90
14409;DHT22;7289;50.706;4.992;2022-11-15T08:39:01;9.50;99.90
14409;DHT22;7289;50.706;4.992;2022-11-15T08:41:47;9.50;99.90
14409;DHT22;7289;50.706;4.992;2022-11-15T08:44:36;9.60;99.90
14409;DHT22;7289;50.706;4.992;2022-11-15T08:47:23;9.70;99.90
14409;DHT22;7289;50.706;4.992;2022-11-15T08:50:10;9.70;99.90
14409;DHT22;7289;50.706;4.992;2022-11-15T08:52:57;9.80;99.90
14409;DHT22;7289;50.706;4.992;2022-11-15T08:55:44;9.90;99.90
14409;DHT22;7289;50.706;4.992;2022-11-15T08:58:31;10.00;99.90
14409;DHT22;7289;50.706;4.992;2022-11-15T09:01:20;10.00;99.90
14409;DHT22;7289;50.706;4.992;2022-11-15T09:04:08;10.20;99.90
14409;DHT22;7289;50.706;4.992;2022-11-15T09:06:55;10.30;99.90
14409;DHT22;7289;50.706;4.992;2022-11-15T09:09:42;10.40;99.90
14409;DHT22;7289;50.706;4.992;2022-11-15T09:12:29;10.50;99.90
14409;DHT22;7289;50.706;4.992;2022-11-15T09:15:16;10.50;99.90
14409;DHT22;7289;50.706;4.992;2022-11-15T09:18:04;10.60;99.90
14409;DHT22;7289;50.706;4.992;2022-11-15T09:20:51;10.70;99.90
14409;DHT22;7289;50.706;4.992;2022-11-15T09:23:41;10.80;99.90
14409;DHT22;7289;50.706;4.992;2022-11-15T09:26:29;10.90;99.90
14409;DHT22;7289;50.706;4.992;2022-11-15T09:29:16;10.90;99.90
14409;DHT22;7289;50.706;4.992;2022-11-15T09:32:03;11.10;99.90
14409;DHT22;7289;50.706;4.992;2022-11-15T09:34:52;11.10;99.90
14409;DHT22;7289;50.706;4.992;2022-11-15T09:37:39;11.20;99.90
14409;DHT22;7289;50.706;4.992;2022-11-15T09:40:27;11.30;99.90
14409;DHT22;7289;50.706;4.992;2022-11-15T09:43:29;11.40;99.90
14409;DHT22;7289;50.706;4.992;2022-11-15T09:46:25;11.50;99.90
14409;DHT22;7289;50.706;4.992;2022-11-15T09:49:13;11.60;99.90
14409;DHT22;7289;50.706;4.992;2022-11-15T09:52:10;11.70;99.90
14409;DHT22;7289;50.706;4.992;2022-11-15T09:54:41;11.70;99.90
14409;DHT22;7289;50.706;4.992;2022-11-15T09:57:24;11.70;99.90
14409;DHT22;7289;50.706;4.992;2022-11-15T10:00:11;11.90;99.90
14409;DHT22;7289;50.706;4.992;2022-11-15T10:03:10;12.10;99.90
14409;DHT22;7289;50.706;4.992;2022-11-15T10:05:41;12.10;99.90
14409;DHT22;7289;50.706;4.992;2022-11-15T10:08:35;12.20;99.90
14409;DHT22;7289;50.706;4.992;2022-11-15T10:11:08;12.50;99.90
14409;DHT22;7289;50.706;4.992;2022-11-15T10:14:00;12.60;99.90
14409;DHT22;7289;50.706;4.992;2022-11-15T10:19:38;12.90;99.90
14409;DHT22;7289;50.706;4.992;2022-11-15T10:22:21;13.00;99.90
14409;DHT22;7289;50.706;4.992;2022-11-15T10:25:10;13.10;99.90
14409;DHT22;7289;50.706;4.992;2022-11-15T10:27:41;13.20;99.90
14409;DHT22;7289;50.706;4.992;2022-11-15T10:30:11;13.20;99.90
14409;DHT22;7289;50.706;4.992;2022-11-15T10:32:41;13.40;99.90
14409;DHT22;7289;50.706;4.992;2022-11-15T10:35:23;13.40;99.90
14409;DHT22;7289;50.706;4.992;2022-11-15T10:37:51;13.50;99.90
14409;DHT22;7289;50.706;4.992;2022-11-15T10:40:23;13.60;99.90
14409;DHT22;7289;50.706;4.992;2022-11-15T10:43:12;13.70;99.90
14409;DHT22;7289;50.706;4.992;2022-11-15T10:45:42;13.90;99.90
14409;DHT22;7289;50.706;4.992;2022-11-15T10:48:24;13.90;99.90
14409;DHT22;7289;50.706;4.992;2022-11-15T10:50:54;13.80;99.90
14409;DHT22;7289;50.706;4.992;2022-11-15T10:53:32;14.00;99.90
14409;DHT22;7289;50.706;4.992;2022-11-15T10:56:05;13.80;99.90
14409;DHT22;7289;50.706;4.992;2022-11-15T10:58:37;13.80;99.90
14409;DHT22;7289;50.706;4.992;2022-11-15T11:01:15;14.00;99.90
14409;DHT22;7289;50.706;4.992;2022-11-15T11:03:45;13.90;99.90
14409;DHT22;7289;50.706;4.992;2022-11-15T11:06:15;14.00;99.90
14409;DHT22;7289;50.706;4.992;2022-11-15T11:08:55;14.20;99.90
14409;DHT22;7289;50.706;4.992;2022-11-15T11:11:28;14.20;99.90
14409;DHT22;7289;50.706;4.992;2022-11-15T11:14:12;14.40;99.90
14409;DHT22;7289;50.706;4.992;2022-11-15T11:16:48;14.60;99.90
14409;DHT22;7289;50.706;4.992;2022-11-15T11:19:33;14.60;99.90
14409;DHT22;7289;50.706;4.992;2022-11-15T11:22:09;14.70;99.90
14409;DHT22;7289;50.706;4.992;2022-11-15T11:24:43;14.70;99.90
14409;DHT22;7289;50.706;4.992;2022-11-15T11:27:21;14.70;99.90
14409;DHT22;7289;50.706;4.992;2022-11-15T11:30:03;14.80;99.80
14409;DHT22;7289;50.706;4.992;2022-11-15T11:32:50;14.80;99.90
14409;DHT22;7289;50.706;4.992;2022-11-15T11:35:29;14.80;99.90
14409;DHT22;7289;50.706;4.992;2022-11-15T11:38:09;14.90;99.90
14409;DHT22;7289;50.706;4.992;2022-11-15T11:40:57;15.00;99.90
14409;DHT22;7289;50.706;4.992;2022-11-15T11:43:35;15.20;99.90
14409;DHT22;7289;50.706;4.992;2022-11-15T11:46:42;15.10;99.90
14409;DHT22;7289;50.706;4.992;2022-11-15T11:49:18;15.10;99.90
14409;DHT22;7289;50.706;4.992;2022-11-15T11:51:53;15.10;99.90
14409;DHT22;7289;50.706;4.992;2022-11-15T11:54:25;15.30;99.90
14409;DHT22;7289;50.706;4.992;2022-11-15T11:56:55;15.30;99.90
14409;DHT22;7289;50.706;4.992;2022-11-15T11:59:33;15.30;99.90
14409;DHT22;7289;50.706;4.992;2022-11-15T12:02:11;15.20;99.80
14409;DHT22;7289;50.706;4.992;2022-11-15T12:04:44;15.20;99.90
14409;DHT22;7289;50.706;4.992;2022-11-15T12:07:17;15.30;99.90
14409;DHT22;7289;50.706;4.992;2022-11-15T12:09:53;15.30;99.90
14409;DHT22;7289;50.706;4.992;2022-11-15T12:12:31;15.40;99.90
14409;DHT22;7289;50.706;4.992;2022-11-15T12:15:12;15.30;99.90
14409;DHT22;7289;50.706;4.992;2022-11-15T12:17:42;15.20;99.90
14409;DHT22;7289;50.706;4.992;2022-11-15T12:20:16;15.30;99.90
14409;DHT22;7289;50.706;4.992;2022-11-15T12:22:50;15.30;99.90
14409;DHT22;7289;50.706;4.992;2022-11-15T12:25:24;15.10;99.90
14409;DHT22;7289;50.706;4.992;2022-11-15T12:27:56;15.20;99.90
14409;DHT22;7289;50.706;4.992;2022-11-15T12:33:32;15.20;99.90
14409;DHT22;7289;50.706;4.992;2022-11-15T12:36:04;15.30;99.90
14409;DHT22;7289;50.706;4.992;2022-11-15T12:38:53;15.50;99.90
14409;DHT22;7289;50.706;4.992;2022-11-15T12:41:23;15.60;99.90
14409;DHT22;7289;50.706;4.992;2022-11-15T12:43:51;15.60;99.90
14409;DHT22;7289;50.706;4.992;2022-11-15T12:49:42;15.60;99.90
14409;DHT22;7289;50.706;4.992;2022-11-15T12:52:11;15.60;99.90
14409;DHT22;7289;50.706;4.992;2022-11-15T12:54:55;15.60;99.90
14409;DHT22;7289;50.706;4.992;2022-11-15T12:57:35;15.50;99.90
14409;DHT22;7289;50.706;4.992;2022-11-15T13:00:37;15.40;99.90
14409;DHT22;7289;50.706;4.992;2022-11-15T13:03:22;15.30;99.90
14409;DHT22;7289;50.706;4.992;2022-11-15T13:06:07;15.20;99.90
14409;DHT22;7289;50.706;4.992;2022-11-15T13:08:48;15.10;99.90
14409;DHT22;7289;50.706;4.992;2022-11-15T13:14:45;15.30;99.90
14409;DHT22;7289;50.706;4.992;2022-11-15T13:17:29;15.40;99.90
14409;DHT22;7289;50.706;4.992;2022-11-15T13:20:20;15.40;99.90
14409;DHT22;7289;50.706;4.992;2022-11-15T13:22:51;15.50;99.90
14409;DHT22;7289;50.706;4.992;2022-11-15T13:25:38;15.70;99.90
14409;DHT22;7289;50.706;4.992;2022-11-15T13:28:18;15.80;99.90
14409;DHT22;7289;50.706;4.992;2022-11-15T13:30:52;15.70;99.90
14409;DHT22;7289;50.706;4.992;2022-11-15T13:33:23;15.80;99.90
14409;DHT22;7289;50.706;4.992;2022-11-15T13:35:55;15.70;99.90
14409;DHT22;7289;50.706;4.992;2022-11-15T13:38:28;15.60;99.90
14409;DHT22;7289;50.706;4.992;2022-11-15T13:40:58;15.40;99.90
14409;DHT22;7289;50.706;4.992;2022-11-15T13:43:31;15.50;99.90
14409;DHT22;7289;50.706;4.992;2022-11-15T13:46:09;15.40;99.90
14409;DHT22;7289;50.706;4.992;2022-11-15T13:48:38;15.30;99.90
14409;DHT22;7289;50.706;4.992;2022-11-15T13:51:15;15.20;99.90
14409;DHT22;7289;50.706;4.992;2022-11-15T13:53:48;15.00;99.90
14409;DHT22;7289;50.706;4.992;2022-11-15T13:56:20;15.00;99.90
14409;DHT22;7289;50.706;4.992;2022-11-15T13:58:48;15.00;99.90
14409;DHT22;7289;50.706;4.992;2022-11-15T14:01:19;15.10;99.90
14409;DHT22;7289;50.706;4.992;2022-11-15T14:03:51;15.00;99.90
14409;DHT22;7289;50.706;4.992;2022-11-15T14:06:23;15.00;99.90
14409;DHT22;7289;50.706;4.992;2022-11-15T14:12:26;14.90;99.90
14409;DHT22;7289;50.706;4.992;2022-11-15T14:14:56;14.90;99.90
14409;DHT22;7289;50.706;4.992;2022-11-15T14:17:36;14.90;99.90
14409;DHT22;7289;50.706;4.992;2022-11-15T14:20:30;14.90;99.90
14409;DHT22;7289;50.706;4.992;2022-11-15T14:23:02;14.90;99.90
14409;DHT22;7289;50.706;4.992;2022-11-15T14:25:32;14.90;99.90
14409;DHT22;7289;50.706;4.992;2022-11-15T14:28:31;14.80;99.90
14409;DHT22;7289;50.706;4.992;2022-11-15T14:31:01;14.90;99.90
14409;DHT22;7289;50.706;4.992;2022-11-15T14:33:30;14.90;99.90
14409;DHT22;7289;50.706;4.992;2022-11-15T14:36:03;14.90;99.90
14409;DHT22;7289;50.706;4.992;2022-11-15T14:38:34;14.90;99.90
14409;DHT22;7289;50.706;4.992;2022-11-15T14:41:03;14.80;99.90
14409;DHT22;7289;50.706;4.992;2022-11-15T14:43:31;14.80;99.90
14409;DHT22;7289;50.706;4.992;2022-11-15T14:45:59;14.80;99.90
14409;DHT22;7289;50.706;4.992;2022-11-15T14:48:28;14.70;99.90
14409;DHT22;7289;50.706;4.992;2022-11-15T14:50:57;14.60;99.90
14409;DHT22;7289;50.706;4.992;2022-11-15T14:53:25;14.60;99.90
14409;DHT22;7289;50.706;4.992;2022-11-15T14:55:55;14.60;99.90
14409;DHT22;7289;50.706;4.992;2022-11-15T14:58:23;14.50;99.90
14409;DHT22;7289;50.706;4.992;2022-11-15T15:00:51;14.50;99.90
14409;DHT22;7289;50.706;4.992;2022-11-15T15:03:19;14.50;99.90
14409;DHT22;7289;50.706;4.992;2022-11-15T15:05:48;14.40;99.90
14409;DHT22;7289;50.706;4.992;2022-11-15T15:08:16;14.30;99.90
14409;DHT22;7289;50.706;4.992;2022-11-15T15:10:45;14.20;99.90
14409;DHT22;7289;50.706;4.992;2022-11-15T15:13:18;14.20;99.90
14409;DHT22;7289;50.706;4.992;2022-11-15T15:15:47;14.30;99.90
14409;DHT22;7289;50.706;4.992;2022-11-15T15:18:16;14.30;99.90
14409;DHT22;7289;50.706;4.992;2022-11-15T15:20:51;14.30;99.90
14409;DHT22;7289;50.706;4.992;2022-11-15T15:23:21;14.20;99.90
14409;DHT22;7289;50.706;4.992;2022-11-15T15:25:51;14.10;99.90
14409;DHT22;7289;50.706;4.992;2022-11-15T15:28:21;14.10;99.90
14409;DHT22;7289;50.706;4.992;2022-11-15T15:30:49;14.10;99.90
14409;DHT22;7289;50.706;4.992;2022-11-15T15:33:19;14.00;99.90
14409;DHT22;7289;50.706;4.992;2022-11-15T15:35:47;14.00;99.90
14409;DHT22;7289;50.706;4.992;2022-11-15T15:38:16;13.90;99.90
14409;DHT22;7289;50.706;4.992;2022-11-15T15:40:44;13.90;99.90
14409;DHT22;7289;50.706;4.992;2022-11-15T15:43:12;13.90;99.90
14409;DHT22;7289;50.706;4.992;2022-11-15T15:45:42;13.90;99.90
14409;DHT22;7289;50.706;4.992;2022-11-15T15:48:13;13.80;99.90
14409;DHT22;7289;50.706;4.992;2022-11-15T15:50:42;13.80;99.90
14409;DHT22;7289;50.706;4.992;2022-11-15T15:53:11;13.80;99.90
14409;DHT22;7289;50.706;4.992;2022-11-15T15:55:40;13.70;99.90
14409;DHT22;7289;50.706;4.992;2022-11-15T15:58:08;13.60;99.90
14409;DHT22;7289;50.706;4.992;2022-11-15T16:00:37;13.70;99.90
14409;DHT22;7289;50.706;4.992;2022-11-15T16:03:07;13.60;99.90
14409;DHT22;7289;50.706;4.992;2022-11-15T16:05:35;13.60;99.90
14409;DHT22;7289;50.706;4.992;2022-11-15T16:08:04;13.50;99.90
14409;DHT22;7289;50.706;4.992;2022-11-15T16:10:33;13.40;99.90
14409;DHT22;7289;50.706;4.992;2022-11-15T16:13:02;13.30;99.90
14409;DHT22;7289;50.706;4.992;2022-11-15T16:15:31;13.30;99.90
14409;DHT22;7289;50.706;4.992;2022-11-15T16:18:00;13.30;99.90
14409;DHT22;7289;50.706;4.992;2022-11-15T16:20:35;13.20;99.90
14409;DHT22;7289;50.706;4.992;2022-11-15T16:23:05;13.20;99.90
14409;DHT22;7289;50.706;4.992;2022-11-15T16:25:41;13.10;99.90
14409;DHT22;7289;50.706;4.992;2022-11-15T16:28:28;13.10;99.90
14409;DHT22;7289;50.706;4.992;2022-11-15T16:31:01;13.10;99.90
14409;DHT22;7289;50.706;4.992;2022-11-15T16:33:30;13.00;99.90
14409;DHT22;7289;50.706;4.992;2022-11-15T16:36:01;13.00;99.90
14409;DHT22;7289;50.706;4.992;2022-11-15T16:38:29;13.00;99.90
14409;DHT22;7289;50.706;4.992;2022-11-15T16:40:58;13.00;99.90
14409;DHT22;7289;50.706;4.992;2022-11-15T16:43:27;13.00;99.90
14409;DHT22;7289;50.706;4.992;2022-11-15T16:45:55;13.00;99.90
14409;DHT22;7289;50.706;4.992;2022-11-15T16:48:25;13.00;99.90
14409;DHT22;7289;50.706;4.992;2022-11-15T16:50:54;13.00;99.90
14409;DHT22;7289;50.706;4.992;2022-11-15T16:53:26;13.00;99.90
14409;DHT22;7289;50.706;4.992;2022-11-15T16:55:55;12.90;99.90
14409;DHT22;7289;50.706;4.992;2022-11-15T16:58:23;12.90;99.90
14409;DHT22;7289;50.706;4.992;2022-11-15T17:00:52;13.00;99.90
14409;DHT22;7289;50.706;4.992;2022-11-15T17:03:22;13.00;99.90
14409;DHT22;7289;50.706;4.992;2022-11-15T17:05:50;13.00;99.90
14409;DHT22;7289;50.706;4.992;2022-11-15T17:08:19;13.10;99.90
14409;DHT22;7289;50.706;4.992;2022-11-15T17:10:49;13.10;99.90
14409;DHT22;7289;50.706;4.992;2022-11-15T17:13:18;13.10;99.90
14409;DHT22;7289;50.706;4.992;2022-11-15T17:15:46;13.00;99.90
14409;DHT22;7289;50.706;4.992;2022-11-15T17:18:14;13.00;99.90
14409;DHT22;7289;50.706;4.992;2022-11-15T17:20:43;13.00;99.90
14409;DHT22;7289;50.706;4.992;2022-11-15T17:23:12;13.10;99.90
14409;DHT22;7289;50.706;4.992;2022-11-15T17:25:41;13.00;99.90
14409;DHT22;7289;50.706;4.992;2022-11-15T17:28:11;13.00;99.90
14409;DHT22;7289;50.706;4.992;2022-11-15T17:30:42;13.00;99.90
14409;DHT22;7289;50.706;4.992;2022-11-15T17:33:10;13.10;99.90
14409;DHT22;7289;50.706;4.992;2022-11-15T17:35:39;13.10;99.90
14409;DHT22;7289;50.706;4.992;2022-11-15T17:38:07;13.10;99.90
14409;DHT22;7289;50.706;4.992;2022-11-15T17:40:35;13.20;99.90
14409;DHT22;7289;50.706;4.992;2022-11-15T17:43:04;13.20;99.90
14409;DHT22;7289;50.706;4.992;2022-11-15T17:45:34;13.20;99.90
14409;DHT22;7289;50.706;4.992;2022-11-15T17:48:07;13.30;99.90